sensor_id;sensor_type;location;lat;lon;timestamp;P1;P2;P0
72509;PMS5003;60532;56.114;40.350;2023-07-29T00:00:52;6.00;5.33;4.33
72509;PMS5003;60532;56.114;40.350;2023-07-29T00:02:52;5.00;5.00;4.00
72509;PMS5003;60532;56.114;40.350;2023-07-29T00:04:53;5.00;5.00;3.67
72509;PMS5003;60532;56.114;40.350;2023-07-29T00:06:53;6.00;4.00;3.67
72509;PMS5003;60532;56.114;40.350;2023-07-29T00:08:54;6.67;5.33;3.33
72509;PMS5003;60532;56.114;40.350;2023-07-29T00:10:54;4.33;4.33;3.00
72509;PMS5003;60532;56.114;40.350;2023-07-29T00:12:55;4.00;4.00;3.00
72509;PMS5003;60532;56.114;40.350;2023-07-29T00:14:55;6.33;5.33;4.00
72509;PMS5003;60532;56.114;40.350;2023-07-29T00:16:57;6.00;5.50;4.00
72509;PMS5003;60532;56.114;40.350;2023-07-29T00:18:57;5.33;5.33;4.00
72509;PMS5003;60532;56.114;40.350;2023-07-29T00:20:58;6.00;5.33;4.33
72509;PMS5003;60532;56.114;40.350;2023-07-29T00:22:58;6.00;6.00;3.67
72509;PMS5003;60532;56.114;40.350;2023-07-29T00:24:59;8.50;6.50;4.75
72509;PMS5003;60532;56.114;40.350;2023-07-29T00:27:00;4.67;4.67;3.67
72509;PMS5003;60532;56.114;40.350;2023-07-29T00:29:00;7.00;7.00;4.00
72509;PMS5003;60532;56.114;40.350;2023-07-29T00:31:01;4.00;3.67;3.00
72509;PMS5003;60532;56.114;40.350;2023-07-29T00:33:02;6.00;4.75;3.00
72509;PMS5003;60532;56.114;40.350;2023-07-29T00:35:02;5.00;5.00;4.00
72509;PMS5003;60532;56.114;40.350;2023-07-29T00:37:03;5.00;5.00;4.00
72509;PMS5003;60532;56.114;40.350;2023-07-29T00:39:05;4.25;4.00;3.00
72509;PMS5003;60532;56.114;40.350;2023-07-29T00:41:06;5.00;5.00;3.67
72509;PMS5003;60532;56.114;40.350;2023-07-29T00:43:07;4.33;4.33;3.00
72509;PMS5003;60532;56.114;40.350;2023-07-29T00:45:08;7.00;6.00;4.00
72509;PMS5003;60532;56.114;40.350;2023-07-29T00:47:08;9.00;6.75;4.00
72509;PMS5003;60532;56.114;40.350;2023-07-29T00:49:10;4.75;4.75;4.25
72509;PMS5003;60532;56.114;40.350;2023-07-29T00:51:11;5.33;5.00;3.00
72509;PMS5003;60532;56.114;40.350;2023-07-29T00:53:11;5.00;5.00;3.67
72509;PMS5003;60532;56.114;40.350;2023-07-29T00:55:12;5.33;5.33;4.00
72509;PMS5003;60532;56.114;40.350;2023-07-29T00:57:12;4.00;4.00;4.00
72509;PMS5003;60532;56.114;40.350;2023-07-29T00:59:15;5.50;5.50;4.00
72509;PMS5003;60532;56.114;40.350;2023-07-29T01:01:15;7.67;5.00;3.33
72509;PMS5003;60532;56.114;40.350;2023-07-29T01:03:16;3.00;3.00;2.00
72509;PMS5003;60532;56.114;40.350;2023-07-29T01:05:17;5.25;5.25;3.25
72509;PMS5003;60532;56.114;40.350;2023-07-29T01:07:30;9.25;4.75;3.00
72509;PMS5003;60532;56.114;40.350;2023-07-29T01:11:58;2.75;2.75;2.50
72509;PMS5003;60532;56.114;40.350;2023-07-29T01:14:04;8.00;4.80;3.00
72509;PMS5003;60532;56.114;40.350;2023-07-29T01:16:10;5.00;5.00;3.00
72509;PMS5003;60532;56.114;40.350;2023-07-29T01:18:21;8.20;6.40;3.00
72509;PMS5003;60532;56.114;40.350;2023-07-29T01:20:24;8.00;5.75;4.00
72509;PMS5003;60532;56.114;40.350;2023-07-29T01:22:24;7.80;6.00;4.00
72509;PMS5003;60532;56.114;40.350;2023-07-29T01:24:25;6.75;6.75;5.00
72509;PMS5003;60532;56.114;40.350;2023-07-29T01:26:26;5.00;4.67;3.67
72509;PMS5003;60532;56.114;40.350;2023-07-29T01:28:28;4.50;4.00;3.00
72509;PMS5003;60532;56.114;40.350;2023-07-29T01:30:30;4.33;3.00;2.67
72509;PMS5003;60532;56.114;40.350;2023-07-29T01:34:47;2.67;2.67;1.67
72509;PMS5003;60532;56.114;40.350;2023-07-29T01:36:48;3.00;3.00;3.00
72509;PMS5003;60532;56.114;40.350;2023-07-29T01:38:51;5.00;4.00;3.00
72509;PMS5003;60532;56.114;40.350;2023-07-29T01:40:53;2.50;2.50;2.00
72509;PMS5003;60532;56.114;40.350;2023-07-29T01:42:53;4.33;4.33;3.00
72509;PMS5003;60532;56.114;40.350;2023-07-29T01:44:54;4.00;4.00;3.00
72509;PMS5003;60532;56.114;40.350;2023-07-29T01:46:59;4.67;3.67;2.00
72509;PMS5003;60532;56.114;40.350;2023-07-29T01:48:59;5.75;4.75;3.00
72509;PMS5003;60532;56.114;40.350;2023-07-29T01:51:00;1.67;1.67;1.67
72509;PMS5003;60532;56.114;40.350;2023-07-29T01:53:00;5.25;4.00;2.75
72509;PMS5003;60532;56.114;40.350;2023-07-29T01:55:01;4.00;4.00;3.00
72509;PMS5003;60532;56.114;40.350;2023-07-29T01:57:02;4.75;4.75;2.75
72509;PMS5003;60532;56.114;40.350;2023-07-29T01:59:02;4.33;4.33;3.00
72509;PMS5003;60532;56.114;40.350;2023-07-29T02:01:03;7.00;6.00;4.00
72509;PMS5003;60532;56.114;40.350;2023-07-29T02:03:03;5.33;5.00;3.33
72509;PMS5003;60532;56.114;40.350;2023-07-29T02:05:04;5.00;5.00;3.67
72509;PMS5003;60532;56.114;40.350;2023-07-29T02:07:04;4.00;4.00;3.00
72509;PMS5003;60532;56.114;40.350;2023-07-29T02:09:05;7.33;5.00;4.00
72509;PMS5003;60532;56.114;40.350;2023-07-29T02:11:05;5.75;5.75;4.25
72509;PMS5003;60532;56.114;40.350;2023-07-29T02:13:06;2.00;2.00;2.00
72509;PMS5003;60532;56.114;40.350;2023-07-29T02:15:06;0.00;0.00;0.00
72509;PMS5003;60532;56.114;40.350;2023-07-29T02:17:07;7.00;6.50;5.00
72509;PMS5003;60532;56.114;40.350;2023-07-29T02:19:08;7.40;6.00;4.00
72509;PMS5003;60532;56.114;40.350;2023-07-29T02:21:09;6.50;6.50;4.75
72509;PMS5003;60532;56.114;40.350;2023-07-29T02:23:09;7.75;7.75;5.00
72509;PMS5003;60532;56.114;40.350;2023-07-29T02:25:10;10.50;8.00;5.75
72509;PMS5003;60532;56.114;40.350;2023-07-29T02:27:10;7.00;7.00;5.00
72509;PMS5003;60532;56.114;40.350;2023-07-29T02:29:11;9.50;9.50;5.00
72509;PMS5003;60532;56.114;40.350;2023-07-29T02:31:20;6.50;6.50;4.50
72509;PMS5003;60532;56.114;40.350;2023-07-29T02:33:21;5.40;5.40;4.60
72509;PMS5003;60532;56.114;40.350;2023-07-29T02:35:21;7.75;6.00;4.00
72509;PMS5003;60532;56.114;40.350;2023-07-29T02:37:21;6.50;6.25;5.00
72509;PMS5003;60532;56.114;40.350;2023-07-29T02:39:22;4.00;3.00;2.00
72509;PMS5003;60532;56.114;40.350;2023-07-29T02:41:23;9.00;5.60;4.00
72509;PMS5003;60532;56.114;40.350;2023-07-29T02:43:23;6.25;6.00;5.00
72509;PMS5003;60532;56.114;40.350;2023-07-29T02:45:24;8.50;8.50;5.00
72509;PMS5003;60532;56.114;40.350;2023-07-29T02:47:24;5.25;5.25;3.75
72509;PMS5003;60532;56.114;40.350;2023-07-29T02:49:25;6.00;6.00;4.50
72509;PMS5003;60532;56.114;40.350;2023-07-29T02:51:25;6.00;6.00;4.00
72509;PMS5003;60532;56.114;40.350;2023-07-29T02:53:26;7.75;7.75;5.00
72509;PMS5003;60532;56.114;40.350;2023-07-29T02:55:26;9.00;8.00;5.00
72509;PMS5003;60532;56.114;40.350;2023-07-29T02:57:27;8.50;8.50;3.75
72509;PMS5003;60532;56.114;40.350;2023-07-29T02:59:27;9.50;8.75;5.00
72509;PMS5003;60532;56.114;40.350;2023-07-29T03:01:27;8.00;5.50;2.75
72509;PMS5003;60532;56.114;40.350;2023-07-29T03:03:28;8.75;7.25;4.25
72509;PMS5003;60532;56.114;40.350;2023-07-29T03:05:28;8.00;8.00;4.50
72509;PMS5003;60532;56.114;40.350;2023-07-29T03:07:29;6.50;5.75;5.00
72509;PMS5003;60532;56.114;40.350;2023-07-29T03:09:29;11.25;11.25;6.50
72509;PMS5003;60532;56.114;40.350;2023-07-29T03:11:30;7.25;7.25;5.00
72509;PMS5003;60532;56.114;40.350;2023-07-29T03:13:31;11.40;10.20;6.00
72509;PMS5003;60532;56.114;40.350;2023-07-29T03:15:31;9.75;9.75;5.25
72509;PMS5003;60532;56.114;40.350;2023-07-29T03:17:34;10.00;10.00;7.00
72509;PMS5003;60532;56.114;40.350;2023-07-29T03:19:34;11.50;10.00;6.00
72509;PMS5003;60532;56.114;40.350;2023-07-29T03:21:35;10.75;9.50;6.00
72509;PMS5003;60532;56.114;40.350;2023-07-29T03:23:35;11.00;8.25;5.50
72509;PMS5003;60532;56.114;40.350;2023-07-29T03:25:36;9.40;9.40;6.00
72509;PMS5003;60532;56.114;40.350;2023-07-29T03:27:36;7.50;7.50;5.25
72509;PMS5003;60532;56.114;40.350;2023-07-29T03:29:37;10.50;9.50;5.75
72509;PMS5003;60532;56.114;40.350;2023-07-29T03:31:37;11.75;9.75;6.50
72509;PMS5003;60532;56.114;40.350;2023-07-29T03:33:38;8.20;6.80;5.20
72509;PMS5003;60532;56.114;40.350;2023-07-29T03:35:39;6.00;6.00;4.75
72509;PMS5003;60532;56.114;40.350;2023-07-29T03:37:39;7.25;6.75;5.00
72509;PMS5003;60532;56.114;40.350;2023-07-29T03:39:40;9.20;4.80;3.80
72509;PMS5003;60532;56.114;40.350;2023-07-29T03:41:41;10.25;8.75;4.50
72509;PMS5003;60532;56.114;40.350;2023-07-29T03:43:41;9.00;9.00;6.00
72509;PMS5003;60532;56.114;40.350;2023-07-29T03:45:41;9.00;9.00;6.25
72509;PMS5003;60532;56.114;40.350;2023-07-29T03:47:42;10.75;10.75;9.00
72509;PMS5003;60532;56.114;40.350;2023-07-29T03:49:42;10.75;8.50;6.00
72509;PMS5003;60532;56.114;40.350;2023-07-29T03:51:43;10.00;10.00;6.00
72509;PMS5003;60532;56.114;40.350;2023-07-29T03:53:43;9.75;9.25;6.00
72509;PMS5003;60532;56.114;40.350;2023-07-29T03:55:44;10.50;10.00;5.75
72509;PMS5003;60532;56.114;40.350;2023-07-29T03:57:44;11.50;11.50;6.00
72509;PMS5003;60532;56.114;40.350;2023-07-29T03:59:44;9.25;9.00;7.00
72509;PMS5003;60532;56.114;40.350;2023-07-29T04:01:45;9.50;9.50;6.00
72509;PMS5003;60532;56.114;40.350;2023-07-29T04:03:45;10.00;10.00;6.00
72509;PMS5003;60532;56.114;40.350;2023-07-29T04:05:46;14.40;11.20;8.20
72509;PMS5003;60532;56.114;40.350;2023-07-29T04:07:47;10.00;10.00;6.00
72509;PMS5003;60532;56.114;40.350;2023-07-29T04:09:47;7.75;7.75;5.00
72509;PMS5003;60532;56.114;40.350;2023-07-29T04:11:48;8.00;8.00;5.00
72509;PMS5003;60532;56.114;40.350;2023-07-29T04:13:48;10.00;8.50;5.75
72509;PMS5003;60532;56.114;40.350;2023-07-29T04:15:49;9.50;9.50;6.00
72509;PMS5003;60532;56.114;40.350;2023-07-29T04:17:49;9.50;8.00;4.75
72509;PMS5003;60532;56.114;40.350;2023-07-29T04:19:50;8.50;8.50;5.75
72509;PMS5003;60532;56.114;40.350;2023-07-29T04:21:50;9.75;8.75;5.00
72509;PMS5003;60532;56.114;40.350;2023-07-29T04:23:51;9.00;9.00;5.25
72509;PMS5003;60532;56.114;40.350;2023-07-29T04:25:51;9.50;9.50;7.00
72509;PMS5003;60532;56.114;40.350;2023-07-29T04:27:52;8.00;5.50;3.25
72509;PMS5003;60532;56.114;40.350;2023-07-29T04:29:52;8.00;8.00;5.00
72509;PMS5003;60532;56.114;40.350;2023-07-29T04:31:52;6.25;6.25;5.75
72509;PMS5003;60532;56.114;40.350;2023-07-29T04:33:53;10.00;8.00;5.25
72509;PMS5003;60532;56.114;40.350;2023-07-29T04:35:53;7.50;7.00;5.00
72509;PMS5003;60532;56.114;40.350;2023-07-29T04:37:54;6.67;6.67;3.67
72509;PMS5003;60532;56.114;40.350;2023-07-29T04:39:54;9.50;7.75;4.25
72509;PMS5003;60532;56.114;40.350;2023-07-29T04:41:55;7.50;6.50;5.00
72509;PMS5003;60532;56.114;40.350;2023-07-29T04:43:57;9.00;7.80;5.20
72509;PMS5003;60532;56.114;40.350;2023-07-29T04:45:57;11.50;10.00;6.00
72509;PMS5003;60532;56.114;40.350;2023-07-29T04:47:58;9.00;6.75;5.00
72509;PMS5003;60532;56.114;40.350;2023-07-29T04:49:58;7.75;6.75;5.00
72509;PMS5003;60532;56.114;40.350;2023-07-29T04:51:59;9.00;9.00;5.00
72509;PMS5003;60532;56.114;40.350;2023-07-29T04:53:59;8.25;8.25;6.00
72509;PMS5003;60532;56.114;40.350;2023-07-29T04:56:00;6.75;6.50;5.00
72509;PMS5003;60532;56.114;40.350;2023-07-29T04:58:01;12.00;9.00;5.25
72509;PMS5003;60532;56.114;40.350;2023-07-29T05:00:02;10.60;6.00;4.00
72509;PMS5003;60532;56.114;40.350;2023-07-29T05:02:03;9.20;9.20;5.80
72509;PMS5003;60532;56.114;40.350;2023-07-29T05:04:04;8.00;8.00;5.00
72509;PMS5003;60532;56.114;40.350;2023-07-29T05:06:04;9.25;8.25;6.25
72509;PMS5003;60532;56.114;40.350;2023-07-29T05:08:05;9.25;7.50;4.50
72509;PMS5003;60532;56.114;40.350;2023-07-29T05:10:05;6.00;6.00;4.00
72509;PMS5003;60532;56.114;40.350;2023-07-29T05:12:06;9.40;7.80;5.80
72509;PMS5003;60532;56.114;40.350;2023-07-29T05:14:07;10.75;8.00;5.00
72509;PMS5003;60532;56.114;40.350;2023-07-29T05:16:09;7.20;7.00;5.00
72509;PMS5003;60532;56.114;40.350;2023-07-29T05:18:09;6.75;6.75;5.25
72509;PMS5003;60532;56.114;40.350;2023-07-29T05:20:10;8.25;6.25;4.75
72509;PMS5003;60532;56.114;40.350;2023-07-29T05:22:10;7.00;7.00;4.50
72509;PMS5003;60532;56.114;40.350;2023-07-29T05:24:11;6.75;6.75;5.00
72509;PMS5003;60532;56.114;40.350;2023-07-29T05:26:11;9.00;9.00;5.00
72509;PMS5003;60532;56.114;40.350;2023-07-29T05:28:12;6.50;6.50;5.00
72509;PMS5003;60532;56.114;40.350;2023-07-29T05:30:12;6.00;6.00;4.00
72509;PMS5003;60532;56.114;40.350;2023-07-29T05:32:12;6.50;6.50;4.50
72509;PMS5003;60532;56.114;40.350;2023-07-29T05:34:13;9.50;8.25;5.00
72509;PMS5003;60532;56.114;40.350;2023-07-29T05:36:14;9.00;8.75;5.75
72509;PMS5003;60532;56.114;40.350;2023-07-29T05:38:14;7.25;7.25;5.25
72509;PMS5003;60532;56.114;40.350;2023-07-29T05:40:15;10.25;8.00;5.00
72509;PMS5003;60532;56.114;40.350;2023-07-29T05:42:15;8.50;8.50;5.50
72509;PMS5003;60532;56.114;40.350;2023-07-29T05:44:16;11.50;11.50;8.00
72509;PMS5003;60532;56.114;40.350;2023-07-29T05:46:16;14.00;11.00;7.00
72509;PMS5003;60532;56.114;40.350;2023-07-29T05:48:16;7.50;6.25;2.75
72509;PMS5003;60532;56.114;40.350;2023-07-29T05:50:17;13.25;11.50;7.50
72509;PMS5003;60532;56.114;40.350;2023-07-29T05:52:17;10.75;10.50;4.50
72509;PMS5003;60532;56.114;40.350;2023-07-29T05:54:18;11.50;10.25;6.25
72509;PMS5003;60532;56.114;40.350;2023-07-29T05:56:19;11.80;11.80;8.00
72509;PMS5003;60532;56.114;40.350;2023-07-29T05:58:19;12.50;11.00;8.00
72509;PMS5003;60532;56.114;40.350;2023-07-29T06:00:20;12.75;10.50;6.00
72509;PMS5003;60532;56.114;40.350;2023-07-29T06:02:20;13.50;13.50;7.25
72509;PMS5003;60532;56.114;40.350;2023-07-29T06:04:21;10.00;10.00;6.50
72509;PMS5003;60532;56.114;40.350;2023-07-29T06:06:21;13.25;11.50;6.00
72509;PMS5003;60532;56.114;40.350;2023-07-29T06:08:23;9.00;9.00;5.60
72509;PMS5003;60532;56.114;40.350;2023-07-29T06:10:24;6.50;5.00;4.50
72509;PMS5003;60532;56.114;40.350;2023-07-29T06:12:24;3.50;3.50;3.00
72509;PMS5003;60532;56.114;40.350;2023-07-29T06:14:25;7.75;5.00;4.00
72509;PMS5003;60532;56.114;40.350;2023-07-29T06:16:25;7.50;7.00;4.25
72509;PMS5003;60532;56.114;40.350;2023-07-29T06:18:26;5.75;5.50;4.00
72509;PMS5003;60532;56.114;40.350;2023-07-29T06:20:26;10.00;8.75;6.00
72509;PMS5003;60532;56.114;40.350;2023-07-29T06:22:27;7.50;7.50;5.00
72509;PMS5003;60532;56.114;40.350;2023-07-29T06:24:27;8.00;8.00;5.00
72509;PMS5003;60532;56.114;40.350;2023-07-29T06:26:28;4.50;4.50;3.00
72509;PMS5003;60532;56.114;40.350;2023-07-29T06:28:28;5.00;5.00;4.00
72509;PMS5003;60532;56.114;40.350;2023-07-29T06:30:29;5.00;5.00;4.00
72509;PMS5003;60532;56.114;40.350;2023-07-29T06:32:29;6.00;6.00;4.50
72509;PMS5003;60532;56.114;40.350;2023-07-29T06:34:29;8.00;6.00;4.25
72509;PMS5003;60532;56.114;40.350;2023-07-29T06:36:30;7.00;6.00;4.00
72509;PMS5003;60532;56.114;40.350;2023-07-29T06:38:30;5.25;5.25;4.00
72509;PMS5003;60532;56.114;40.350;2023-07-29T06:40:31;11.20;7.20;4.60
72509;PMS5003;60532;56.114;40.350;2023-07-29T06:42:32;3.75;3.75;3.00
72509;PMS5003;60532;56.114;40.350;2023-07-29T06:44:32;5.50;5.00;4.00
72509;PMS5003;60532;56.114;40.350;2023-07-29T06:46:33;6.00;6.00;4.00
72509;PMS5003;60532;56.114;40.350;2023-07-29T06:48:33;3.25;3.25;2.25
72509;PMS5003;60532;56.114;40.350;2023-07-29T06:50:33;4.25;4.25;4.00
72509;PMS5003;60532;56.114;40.350;2023-07-29T06:52:34;5.00;4.00;3.00
72509;PMS5003;60532;56.114;40.350;2023-07-29T06:54:36;5.40;4.40;3.40
72509;PMS5003;60532;56.114;40.350;2023-07-29T06:56:37;3.00;3.00;3.00
72509;PMS5003;60532;56.114;40.350;2023-07-29T06:58:37;4.25;4.00;3.00
72509;PMS5003;60532;56.114;40.350;2023-07-29T07:00:38;4.75;4.75;4.00
72509;PMS5003;60532;56.114;40.350;2023-07-29T07:02:38;4.00;4.00;3.00
72509;PMS5003;60532;56.114;40.350;2023-07-29T07:04:39;4.25;4.25;3.00
72509;PMS5003;60532;56.114;40.350;2023-07-29T07:06:39;3.00;1.00;1.00
72509;PMS5003;60532;56.114;40.350;2023-07-29T07:08:40;5.75;4.50;3.75
72509;PMS5003;60532;56.114;40.350;2023-07-29T07:10:41;5.80;4.80;4.00
72509;PMS5003;60532;56.114;40.350;2023-07-29T07:12:42;3.25;3.25;3.00
72509;PMS5003;60532;56.114;40.350;2023-07-29T07:14:42;5.00;4.75;3.25
72509;PMS5003;60532;56.114;40.350;2023-07-29T07:16:43;4.25;4.25;3.50
72509;PMS5003;60532;56.114;40.350;2023-07-29T07:18:43;4.00;4.00;3.75
72509;PMS5003;60532;56.114;40.350;2023-07-29T07:20:47;0.67;0.00;0.00
72509;PMS5003;60532;56.114;40.350;2023-07-29T07:22:47;3.40;3.00;2.80
72509;PMS5003;60532;56.114;40.350;2023-07-29T07:24:48;3.00;3.00;3.00
72509;PMS5003;60532;56.114;40.350;2023-07-29T07:26:48;4.00;4.00;3.00
72509;PMS5003;60532;56.114;40.350;2023-07-29T07:28:49;2.75;2.75;2.50
72509;PMS5003;60532;56.114;40.350;2023-07-29T07:30:51;5.00;3.00;2.40
72509;PMS5003;60532;56.114;40.350;2023-07-29T07:32:52;1.00;1.00;1.00
72509;PMS5003;60532;56.114;40.350;2023-07-29T07:34:52;5.50;4.00;3.00
72509;PMS5003;60532;56.114;40.350;2023-07-29T07:36:52;3.25;3.25;3.00
72509;PMS5003;60532;56.114;40.350;2023-07-29T07:38:53;3.50;3.50;3.50
72509;PMS5003;60532;56.114;40.350;2023-07-29T07:40:56;4.00;4.00;3.00
72509;PMS5003;60532;56.114;40.350;2023-07-29T07:42:57;3.60;3.60;3.20
72509;PMS5003;60532;56.114;40.350;2023-07-29T07:44:57;4.75;4.75;4.00
72509;PMS5003;60532;56.114;40.350;2023-07-29T07:46:58;5.00;5.00;4.00
72509;PMS5003;60532;56.114;40.350;2023-07-29T07:48:58;4.75;4.75;4.00
72509;PMS5003;60532;56.114;40.350;2023-07-29T07:50:59;3.50;3.00;2.25
72509;PMS5003;60532;56.114;40.350;2023-07-29T07:52:59;7.50;5.25;4.00
72509;PMS5003;60532;56.114;40.350;2023-07-29T07:55:00;4.00;2.75;2.25
72509;PMS5003;60532;56.114;40.350;2023-07-29T07:57:00;6.00;4.75;4.00
72509;PMS5003;60532;56.114;40.350;2023-07-29T07:59:01;5.00;5.00;4.00
72509;PMS5003;60532;56.114;40.350;2023-07-29T08:01:02;5.75;5.75;5.00
72509;PMS5003;60532;56.114;40.350;2023-07-29T08:03:03;5.00;5.00;4.00
72509;PMS5003;60532;56.114;40.350;2023-07-29T08:05:03;6.00;6.00;5.00
72509;PMS5003;60532;56.114;40.350;2023-07-29T08:07:04;7.75;6.25;5.00
72509;PMS5003;60532;56.114;40.350;2023-07-29T08:09:05;5.50;5.50;4.75
72509;PMS5003;60532;56.114;40.350;2023-07-29T08:11:05;4.50;4.50;4.00
72509;PMS5003;60532;56.114;40.350;2023-07-29T08:13:06;4.25;4.25;3.00
72509;PMS5003;60532;56.114;40.350;2023-07-29T08:15:06;6.25;5.25;5.00
72509;PMS5003;60532;56.114;40.350;2023-07-29T08:17:07;7.50;7.50;5.00
72509;PMS5003;60532;56.114;40.350;2023-07-29T08:19:07;5.00;5.00;4.00
72509;PMS5003;60532;56.114;40.350;2023-07-29T08:21:10;5.40;5.40;5.00
72509;PMS5003;60532;56.114;40.350;2023-07-29T08:23:10;5.00;5.00;3.50
72509;PMS5003;60532;56.114;40.350;2023-07-29T08:25:10;5.25;5.25;5.00
72509;PMS5003;60532;56.114;40.350;2023-07-29T08:27:11;8.25;6.00;4.00
72509;PMS5003;60532;56.114;40.350;2023-07-29T08:29:11;7.50;7.50;5.00
72509;PMS5003;60532;56.114;40.350;2023-07-29T08:31:12;4.50;4.50;4.25
72509;PMS5003;60532;56.114;40.350;2023-07-29T08:33:12;6.00;6.00;5.00
72509;PMS5003;60532;56.114;40.350;2023-07-29T08:35:13;4.00;4.00;3.00
72509;PMS5003;60532;56.114;40.350;2023-07-29T08:37:14;5.50;5.50;4.25
72509;PMS5003;60532;56.114;40.350;2023-07-29T08:39:14;5.00;5.00;4.75
72509;PMS5003;60532;56.114;40.350;2023-07-29T08:43:15;4.50;4.50;3.75
72509;PMS5003;60532;56.114;40.350;2023-07-29T08:45:16;4.60;4.60;3.80
72509;PMS5003;60532;56.114;40.350;2023-07-29T08:47:17;4.20;4.20;3.80
72509;PMS5003;60532;56.114;40.350;2023-07-29T08:49:18;6.20;4.20;3.20
72509;PMS5003;60532;56.114;40.350;2023-07-29T08:51:19;4.20;4.20;3.00
72509;PMS5003;60532;56.114;40.350;2023-07-29T08:53:21;4.40;4.40;3.00
72509;PMS5003;60532;56.114;40.350;2023-07-29T08:55:22;4.00;3.50;3.00
72509;PMS5003;60532;56.114;40.350;2023-07-29T08:57:22;4.50;4.50;3.50
72509;PMS5003;60532;56.114;40.350;2023-07-29T08:59:23;4.20;4.20;3.20
72509;PMS5003;60532;56.114;40.350;2023-07-29T09:01:24;4.00;4.00;3.00
72509;PMS5003;60532;56.114;40.350;2023-07-29T09:03:25;4.00;4.00;3.33
72509;PMS5003;60532;56.114;40.350;2023-07-29T09:05:25;3.50;3.50;3.00
72509;PMS5003;60532;56.114;40.350;2023-07-29T09:07:26;28.25;21.75;13.50
72509;PMS5003;60532;56.114;40.350;2023-07-29T09:09:27;44.40;29.40;17.60
72509;PMS5003;60532;56.114;40.350;2023-07-29T09:11:27;31.00;24.50;14.00
72509;PMS5003;60532;56.114;40.350;2023-07-29T09:13:28;39.25;29.75;15.50
72509;PMS5003;60532;56.114;40.350;2023-07-29T09:15:29;28.50;20.50;12.50
72509;PMS5003;60532;56.114;40.350;2023-07-29T09:17:33;43.20;28.00;14.80
72509;PMS5003;60532;56.114;40.350;2023-07-29T09:19:33;31.60;25.80;15.00
72509;PMS5003;60532;56.114;40.350;2023-07-29T09:21:34;30.00;19.20;11.40
72509;PMS5003;60532;56.114;40.350;2023-07-29T09:23:39;22.00;13.60;9.80
72509;PMS5003;60532;56.114;40.350;2023-07-29T09:25:41;27.00;18.60;11.00
72509;PMS5003;60532;56.114;40.350;2023-07-29T09:27:41;7.25;7.25;6.25
72509;PMS5003;60532;56.114;40.350;2023-07-29T09:29:42;18.75;14.25;10.00
72509;PMS5003;60532;56.114;40.350;2023-07-29T09:31:42;19.00;16.00;11.00
72509;PMS5003;60532;56.114;40.350;2023-07-29T09:33:43;12.00;9.50;6.00
72509;PMS5003;60532;56.114;40.350;2023-07-29T09:35:43;12.50;10.00;6.00
72509;PMS5003;60532;56.114;40.350;2023-07-29T09:37:44;15.40;11.40;6.80
72509;PMS5003;60532;56.114;40.350;2023-07-29T09:39:45;10.33;8.67;5.67
72509;PMS5003;60532;56.114;40.350;2023-07-29T09:41:48;11.00;8.80;7.00
72509;PMS5003;60532;56.114;40.350;2023-07-29T09:43:55;9.80;7.40;6.00
72509;PMS5003;60532;56.114;40.350;2023-07-29T09:46:03;9.60;7.60;4.20
72509;PMS5003;60532;56.114;40.350;2023-07-29T09:48:04;8.20;6.40;5.20
72509;PMS5003;60532;56.114;40.350;2023-07-29T09:50:09;13.40;10.00;6.00
72509;PMS5003;60532;56.114;40.350;2023-07-29T09:52:09;6.50;6.50;5.00
72509;PMS5003;60532;56.114;40.350;2023-07-29T09:54:10;9.33;7.67;5.00
72509;PMS5003;60532;56.114;40.350;2023-07-29T09:56:13;6.00;6.00;5.00
72509;PMS5003;60532;56.114;40.350;2023-07-29T09:58:14;7.50;5.50;4.75
72509;PMS5003;60532;56.114;40.350;2023-07-29T10:00:14;8.00;4.50;3.50
72509;PMS5003;60532;56.114;40.350;2023-07-29T10:02:15;5.00;5.00;4.00
72509;PMS5003;60532;56.114;40.350;2023-07-29T10:04:16;9.60;6.20;5.20
72509;PMS5003;60532;56.114;40.350;2023-07-29T10:06:17;6.00;6.00;4.50
72509;PMS5003;60532;56.114;40.350;2023-07-29T10:08:18;6.00;6.00;4.00
72509;PMS5003;60532;56.114;40.350;2023-07-29T10:10:19;6.25;6.25;4.00
72509;PMS5003;60532;56.114;40.350;2023-07-29T10:12:20;5.50;5.50;3.50
72509;PMS5003;60532;56.114;40.350;2023-07-29T10:14:21;9.00;6.00;3.00
72509;PMS5003;60532;56.114;40.350;2023-07-29T10:16:23;9.00;6.00;4.00
72509;PMS5003;60532;56.114;40.350;2023-07-29T10:18:24;6.00;5.00;3.60
72509;PMS5003;60532;56.114;40.350;2023-07-29T10:20:26;6.20;6.20;4.60
72509;PMS5003;60532;56.114;40.350;2023-07-29T10:22:32;6.00;5.00;4.00
72509;PMS5003;60532;56.114;40.350;2023-07-29T10:24:33;6.75;4.00;3.00
72509;PMS5003;60532;56.114;40.350;2023-07-29T10:26:34;6.25;4.50;3.00
72509;PMS5003;60532;56.114;40.350;2023-07-29T10:28:35;6.00;4.00;4.00
72509;PMS5003;60532;56.114;40.350;2023-07-29T10:30:37;5.00;5.00;4.00
72509;PMS5003;60532;56.114;40.350;2023-07-29T10:32:38;4.50;4.50;4.00
72509;PMS5003;60532;56.114;40.350;2023-07-29T10:34:40;3.75;3.75;3.00
72509;PMS5003;60532;56.114;40.350;2023-07-29T10:36:40;6.00;6.00;3.00
72509;PMS5003;60532;56.114;40.350;2023-07-29T10:38:41;3.75;3.75;3.00
72509;PMS5003;60532;56.114;40.350;2023-07-29T10:40:55;5.00;4.67;4.00
72509;PMS5003;60532;56.114;40.350;2023-07-29T10:45:02;6.40;4.80;4.20
72509;PMS5003;60532;56.114;40.350;2023-07-29T10:47:18;6.00;4.00;3.80
72509;PMS5003;60532;56.114;40.350;2023-07-29T10:49:22;3.75;3.75;3.00
72509;PMS5003;60532;56.114;40.350;2023-07-29T10:53:29;5.25;4.25;3.25
72509;PMS5003;60532;56.114;40.350;2023-07-29T10:55:34;4.25;4.25;3.00
72509;PMS5003;60532;56.114;40.350;2023-07-29T10:57:38;4.25;4.00;3.00
72509;PMS5003;60532;56.114;40.350;2023-07-29T10:59:38;4.75;3.75;3.00
72509;PMS5003;60532;56.114;40.350;2023-07-29T11:01:40;5.25;4.00;3.00
72509;PMS5003;60532;56.114;40.350;2023-07-29T11:03:53;7.00;5.00;4.00
72509;PMS5003;60532;56.114;40.350;2023-07-29T11:06:01;9.50;4.50;3.75
72509;PMS5003;60532;56.114;40.350;2023-07-29T11:08:14;4.75;4.25;4.00
72509;PMS5003;60532;56.114;40.350;2023-07-29T11:10:15;14.20;9.60;5.00
72509;PMS5003;60532;56.114;40.350;2023-07-29T11:14:35;12.60;6.60;5.00
72509;PMS5003;60532;56.114;40.350;2023-07-29T11:16:36;15.00;8.25;5.00
72509;PMS5003;60532;56.114;40.350;2023-07-29T11:18:36;15.25;11.25;6.50
72509;PMS5003;60532;56.114;40.350;2023-07-29T11:20:37;10.25;7.50;6.00
72509;PMS5003;60532;56.114;40.350;2023-07-29T11:22:37;5.00;5.00;3.25
72509;PMS5003;60532;56.114;40.350;2023-07-29T11:24:41;6.20;5.00;3.60
72509;PMS5003;60532;56.114;40.350;2023-07-29T11:26:46;10.60;7.00;5.00
72509;PMS5003;60532;56.114;40.350;2023-07-29T11:28:46;29.00;25.40;18.20
72509;PMS5003;60532;56.114;40.350;2023-07-29T11:30:46;27.75;24.50;18.25
72509;PMS5003;60532;56.114;40.350;2023-07-29T11:32:47;38.50;33.75;23.00
72509;PMS5003;60532;56.114;40.350;2023-07-29T11:34:48;48.00;38.00;26.25
72509;PMS5003;60532;56.114;40.350;2023-07-29T11:36:48;28.75;27.25;20.00
72509;PMS5003;60532;56.114;40.350;2023-07-29T11:38:48;83.75;76.00;54.50
72509;PMS5003;60532;56.114;40.350;2023-07-29T11:40:56;39.25;36.00;27.00
72509;PMS5003;60532;56.114;40.350;2023-07-29T11:42:56;79.20;66.00;48.80
72509;PMS5003;60532;56.114;40.350;2023-07-29T11:44:57;62.00;50.25;34.50
72509;PMS5003;60532;56.114;40.350;2023-07-29T11:46:58;64.20;51.00;35.00